createdAt,value
2016-11-25T00:00:34.478Z,-88
2016-11-25T00:01:34.432Z,-88
2016-11-25T00:02:34.681Z,-89
2016-11-25T00:03:34.562Z,-89
2016-11-25T00:04:34.502Z,-88
2016-11-25T00:05:34.414Z,-89
2016-11-25T00:06:34.450Z,-89
2016-11-25T00:07:34.495Z,-89
2016-11-25T00:08:34.588Z,-89
2016-11-25T00:09:34.508Z,-89
2016-11-25T00:10:34.603Z,-88
2016-11-25T00:11:34.878Z,-88
2016-11-25T00:12:34.623Z,-88
2016-11-25T00:13:34.519Z,-89
2016-11-25T00:14:34.522Z,-89
2016-11-25T00:15:34.535Z,-88
2016-11-25T00:16:34.534Z,-88
2016-11-25T00:17:34.553Z,-88
2016-11-25T00:18:34.540Z,-88
2016-11-25T00:19:34.617Z,-88
2016-11-25T00:20:34.648Z,-89
2016-11-25T00:21:34.695Z,-89
2016-11-25T00:22:34.499Z,-88
2016-11-25T00:23:34.607Z,-89
2016-11-25T00:24:34.637Z,-89
2016-11-25T00:25:34.497Z,-89
2016-11-25T00:26:34.643Z,-88
2016-11-25T00:27:34.567Z,-89
2016-11-25T00:28:34.601Z,-88
2016-11-25T00:29:34.645Z,-88
2016-11-25T00:30:34.645Z,-88
2016-11-25T00:31:34.560Z,-89
2016-11-25T00:32:34.777Z,-88
2016-11-25T00:33:34.704Z,-88
2016-11-25T00:34:34.635Z,-88
2016-11-25T00:35:34.550Z,-88
2016-11-25T00:36:34.558Z,-89
2016-11-25T00:37:34.585Z,-89
2016-11-25T00:38:34.526Z,-89
2016-11-25T00:39:34.751Z,-89
2016-11-25T00:40:34.755Z,-88
2016-11-25T00:41:34.768Z,-88
2016-11-25T00:42:34.670Z,-88
2016-11-25T00:43:34.586Z,-88
2016-11-25T00:44:34.734Z,-89
2016-11-25T00:45:34.681Z,-88
2016-11-25T00:46:34.693Z,-88
2016-11-25T00:47:34.707Z,-88
2016-11-25T00:48:34.685Z,-89
2016-11-25T00:49:34.737Z,-88
2016-11-25T00:50:34.779Z,-88
2016-11-25T00:51:34.736Z,-88
2016-11-25T00:52:34.691Z,-88
2016-11-25T00:53:34.732Z,-88
2016-11-25T00:54:34.722Z,-88
2016-11-25T00:55:34.658Z,-89
2016-11-25T00:56:34.791Z,-88
2016-11-25T00:57:34.739Z,-88
2016-11-25T00:58:34.647Z,-89
2016-11-25T00:59:34.851Z,-88
2016-11-25T01:00:34.677Z,-88
2016-11-25T01:01:34.595Z,-88
2016-11-25T01:02:34.592Z,-88
2016-11-25T01:03:34.737Z,-88
2016-11-25T01:04:34.908Z,-89
2016-11-25T01:05:34.700Z,-88
2016-11-25T01:06:34.821Z,-88
2016-11-25T01:07:34.744Z,-89
2016-11-25T01:08:34.732Z,-88
2016-11-25T01:09:34.691Z,-88
2016-11-25T01:10:34.900Z,-89
2016-11-25T01:11:34.858Z,-89
2016-11-25T01:12:34.597Z,-89
2016-11-25T01:13:34.768Z,-88
2016-11-25T01:14:34.714Z,-88
2016-11-25T01:15:34.714Z,-88
2016-11-25T01:16:34.713Z,-88
2016-11-25T01:17:34.794Z,-89
2016-11-25T01:18:34.763Z,-89
2016-11-25T01:19:34.706Z,-88
2016-11-25T01:20:34.715Z,-88
2016-11-25T01:21:34.817Z,-88
2016-11-25T01:22:34.749Z,-88
2016-11-25T01:23:34.695Z,-88
2016-11-25T01:24:34.645Z,-88
2016-11-25T01:25:34.714Z,-88
2016-11-25T01:26:34.751Z,-89
2016-11-25T01:27:34.803Z,-89
2016-11-25T01:28:34.731Z,-88
2016-11-25T01:29:34.816Z,-88
2016-11-25T01:30:34.888Z,-88
2016-11-25T01:31:34.723Z,-88
2016-11-25T01:32:34.700Z,-89
2016-11-25T01:33:34.746Z,-89
2016-11-25T01:34:34.828Z,-88
2016-11-25T01:35:34.926Z,-88
2016-11-25T01:36:34.842Z,-88
2016-11-25T01:37:34.687Z,-88
2016-11-25T01:38:34.824Z,-89
2016-11-25T01:39:34.850Z,-88
2016-11-25T01:40:34.922Z,-89
2016-11-25T01:41:34.688Z,-89
2016-11-25T01:42:34.759Z,-89
2016-11-25T01:43:34.785Z,-88
2016-11-25T01:44:34.845Z,-88
2016-11-25T01:45:34.768Z,-88
2016-11-25T01:46:34.689Z,-88
2016-11-25T01:47:34.851Z,-89
2016-11-25T01:48:34.960Z,-88
2016-11-25T01:49:34.844Z,-88
2016-11-25T01:50:34.787Z,-89
2016-11-25T01:51:34.862Z,-88
2016-11-25T01:52:34.869Z,-88
2016-11-25T01:53:34.911Z,-88
2016-11-25T01:54:34.701Z,-89
2016-11-25T01:55:34.793Z,-88
2016-11-25T01:56:34.816Z,-88
2016-11-25T01:57:34.889Z,-89
2016-11-25T01:58:34.808Z,-88
2016-11-25T01:59:34.807Z,-88
2016-11-25T02:00:34.890Z,-89
2016-11-25T02:01:34.823Z,-88
2016-11-25T02:02:34.807Z,-88
2016-11-25T02:03:34.847Z,-88
2016-11-25T02:04:34.848Z,-88
2016-11-25T02:05:34.822Z,-89
2016-11-25T02:06:34.919Z,-89
2016-11-25T02:07:34.738Z,-89
2016-11-25T02:08:34.836Z,-88
2016-11-25T02:09:34.861Z,-88
2016-11-25T02:10:34.860Z,-88
2016-11-25T02:11:34.933Z,-88
2016-11-25T02:12:34.846Z,-88
2016-11-25T02:13:34.915Z,-88
2016-11-25T02:14:34.945Z,-88
2016-11-25T02:15:34.856Z,-88
2016-11-25T02:16:34.901Z,-88
2016-11-25T02:17:34.858Z,-88
2016-11-25T02:18:34.852Z,-88
2016-11-25T02:19:34.836Z,-88
2016-11-25T02:20:34.884Z,-89
2016-11-25T02:21:34.846Z,-88
2016-11-25T02:22:34.940Z,-89
2016-11-25T02:23:35.584Z,-89
2016-11-25T02:24:35.029Z,-88
2016-11-25T02:25:34.962Z,-89
2016-11-25T02:26:34.887Z,-88
2016-11-25T02:27:35.049Z,-88
2016-11-25T02:28:34.830Z,-89
2016-11-25T02:29:34.877Z,-88
2016-11-25T02:30:35.056Z,-88
2016-11-25T02:31:34.885Z,-89
2016-11-25T02:32:34.892Z,-88
2016-11-25T02:33:35.518Z,-89
2016-11-25T02:34:34.978Z,-89
2016-11-25T02:35:34.890Z,-88
2016-11-25T02:36:35.085Z,-88
2016-11-25T02:37:35.068Z,-89
2016-11-25T02:38:34.989Z,-88
2016-11-25T02:39:35.119Z,-88
2016-11-25T02:40:34.912Z,-88
2016-11-25T02:41:35.037Z,-89
2016-11-25T02:42:34.853Z,-89
2016-11-25T02:43:34.988Z,-89
2016-11-25T02:44:34.914Z,-89
2016-11-25T02:45:35.018Z,-89
2016-11-25T02:46:35.110Z,-88
2016-11-25T02:47:34.925Z,-89
2016-11-25T02:48:35.002Z,-88
2016-11-25T02:49:35.012Z,-88
2016-11-25T02:50:35.021Z,-88
2016-11-25T02:51:34.885Z,-89
2016-11-25T02:52:35.134Z,-88
2016-11-25T02:53:35.056Z,-88
2016-11-25T02:54:34.978Z,-88
2016-11-25T02:55:34.887Z,-88
2016-11-25T02:56:34.873Z,-88
2016-11-25T02:57:35.138Z,-88
2016-11-25T02:58:34.962Z,-88
2016-11-25T02:59:34.896Z,-88
2016-11-25T03:00:35.054Z,-89
2016-11-25T03:01:34.982Z,-88
2016-11-25T03:02:34.997Z,-88
2016-11-25T03:03:34.973Z,-89
2016-11-25T03:04:35.217Z,-88
2016-11-25T03:05:34.969Z,-88
2016-11-25T03:06:35.076Z,-89
2016-11-25T03:07:35.064Z,-88
2016-11-25T03:08:35.279Z,-89
2016-11-25T03:09:35.177Z,-88
2016-11-25T03:10:35.088Z,-88
2016-11-25T03:11:35.079Z,-88
2016-11-25T03:12:34.993Z,-89
2016-11-25T03:13:35.033Z,-89
2016-11-25T03:14:34.930Z,-89
2016-11-25T03:15:35.155Z,-88
2016-11-25T03:16:35.011Z,-88
2016-11-25T03:17:35.123Z,-89
2016-11-25T03:18:35.109Z,-88
2016-11-25T03:19:35.004Z,-89
2016-11-25T03:20:34.953Z,-89
2016-11-25T03:21:35.037Z,-89
2016-11-25T03:22:34.957Z,-89
2016-11-25T03:23:35.219Z,-89
2016-11-25T03:24:35.254Z,-89
2016-11-25T03:25:35.138Z,-88
2016-11-25T03:26:35.122Z,-88
2016-11-25T03:27:35.041Z,-89
2016-11-25T03:28:34.982Z,-88
2016-11-25T03:29:35.191Z,-88
2016-11-25T03:30:35.056Z,-88
2016-11-25T03:31:35.064Z,-88
2016-11-25T03:32:35.073Z,-88
2016-11-25T03:33:35.081Z,-88
2016-11-25T03:34:35.003Z,-88
2016-11-25T03:35:35.150Z,-89
2016-11-25T03:36:35.159Z,-88
2016-11-25T03:37:35.077Z,-88
2016-11-25T03:38:35.159Z,-89
2016-11-25T03:39:35.219Z,-89
2016-11-25T03:40:35.139Z,-88
2016-11-25T03:41:35.203Z,-89
2016-11-25T03:42:35.221Z,-89
2016-11-25T03:43:35.098Z,-88
2016-11-25T03:44:35.099Z,-89
2016-11-25T03:45:35.219Z,-88
2016-11-25T03:46:35.194Z,-88
2016-11-25T03:47:35.094Z,-88
2016-11-25T03:48:35.182Z,-88
2016-11-25T03:49:35.127Z,-89
2016-11-25T03:50:35.149Z,-89
2016-11-25T03:51:35.222Z,-88
2016-11-25T03:52:35.093Z,-88
2016-11-25T03:53:35.206Z,-89
2016-11-25T03:54:35.261Z,-88
2016-11-25T03:55:35.204Z,-88
2016-11-25T03:56:35.166Z,-89
2016-11-25T03:57:35.135Z,-88
2016-11-25T03:58:35.173Z,-88
2016-11-25T03:59:35.146Z,-89
2016-11-25T04:00:35.288Z,-88
2016-11-25T04:01:35.074Z,-88
2016-11-25T04:02:35.219Z,-88
2016-11-25T04:03:35.231Z,-88
2016-11-25T04:04:35.238Z,-88
2016-11-25T04:05:35.156Z,-88
2016-11-25T04:06:35.286Z,-89
2016-11-25T04:07:35.149Z,-88
2016-11-25T04:08:35.162Z,-88
2016-11-25T04:09:35.261Z,-88
2016-11-25T04:10:35.194Z,-88
2016-11-25T04:11:35.198Z,-89
2016-11-25T04:12:35.278Z,-88
2016-11-25T04:13:35.093Z,-88
2016-11-25T04:14:35.099Z,-88
2016-11-25T04:15:35.299Z,-88
2016-11-25T04:16:35.341Z,-88
2016-11-25T04:17:35.195Z,-88
2016-11-25T04:18:35.198Z,-89
2016-11-25T04:19:35.184Z,-86
2016-11-25T04:20:35.159Z,-86
2016-11-25T04:21:35.251Z,-86
2016-11-25T04:22:35.358Z,-86
2016-11-25T04:23:35.292Z,-85
2016-11-25T04:24:35.198Z,-86
2016-11-25T04:25:35.283Z,-85
2016-11-25T04:26:35.140Z,-85
2016-11-25T04:27:35.376Z,-86
2016-11-25T04:28:35.427Z,-86
2016-11-25T04:29:35.322Z,-86
2016-11-25T04:30:35.229Z,-86
2016-11-25T04:31:35.284Z,-85
2016-11-25T04:32:35.322Z,-86
2016-11-25T04:33:35.235Z,-86
2016-11-25T04:34:35.204Z,-86
2016-11-25T04:35:35.217Z,-86
2016-11-25T04:36:35.304Z,-85
2016-11-25T04:37:35.315Z,-86
2016-11-25T04:38:35.328Z,-86
2016-11-25T04:39:35.238Z,-86
2016-11-25T04:40:35.323Z,-86
2016-11-25T04:41:35.351Z,-86
2016-11-25T04:42:35.472Z,-86
2016-11-25T04:43:35.318Z,-85
2016-11-25T04:44:35.431Z,-85
2016-11-25T04:45:35.248Z,-86
2016-11-25T04:46:35.254Z,-86
2016-11-25T04:47:35.335Z,-86
2016-11-25T04:48:35.424Z,-86
2016-11-25T04:49:35.212Z,-86
2016-11-25T04:50:35.293Z,-86
2016-11-25T04:51:35.358Z,-86
2016-11-25T04:52:35.341Z,-86
2016-11-25T04:53:35.285Z,-86
2016-11-25T04:54:35.301Z,-86
2016-11-25T04:55:35.193Z,-86
2016-11-25T04:56:35.278Z,-86
2016-11-25T04:57:35.361Z,-86
2016-11-25T04:58:35.631Z,-86
2016-11-25T04:59:35.424Z,-85
2016-11-25T05:00:35.397Z,-86
2016-11-25T05:01:35.389Z,-86
2016-11-25T05:02:35.450Z,-85
2016-11-25T05:03:35.306Z,-87
2016-11-25T05:04:35.293Z,-86
2016-11-25T05:05:35.335Z,-86
2016-11-25T05:06:35.327Z,-86
2016-11-25T05:07:35.382Z,-85
2016-11-25T05:08:35.459Z,-86
2016-11-25T05:09:35.400Z,-85
2016-11-25T05:10:35.268Z,-86
2016-11-25T05:11:35.516Z,-85
2016-11-25T05:12:35.336Z,-86
2016-11-25T05:13:35.350Z,-86
2016-11-25T05:14:35.331Z,-86
2016-11-25T05:15:35.482Z,-86
2016-11-25T05:16:35.286Z,-86
2016-11-25T05:17:35.296Z,-86
2016-11-25T05:18:35.357Z,-86
2016-11-25T05:19:35.436Z,-86
2016-11-25T05:20:35.443Z,-86
2016-11-25T05:21:35.456Z,-85
2016-11-25T05:22:35.462Z,-86
2016-11-25T05:23:35.436Z,-86
2016-11-25T05:24:35.359Z,-86
2016-11-25T05:25:35.439Z,-87
2016-11-25T05:26:35.358Z,-86
2016-11-25T05:27:35.282Z,-86
2016-11-25T05:28:35.364Z,-86
2016-11-25T05:29:35.450Z,-86
2016-11-25T05:30:35.371Z,-86
2016-11-25T05:31:35.379Z,-86
2016-11-25T05:32:35.434Z,-86
2016-11-25T05:33:35.414Z,-86
2016-11-25T05:34:35.369Z,-86
2016-11-25T05:35:35.341Z,-86
2016-11-25T05:36:35.310Z,-86
2016-11-25T05:37:35.397Z,-86
2016-11-25T05:38:35.472Z,-86
2016-11-25T05:39:35.481Z,-86
2016-11-25T05:40:35.486Z,-86
2016-11-25T05:41:35.402Z,-86
2016-11-25T05:42:35.545Z,-87
2016-11-25T05:43:35.515Z,-85
2016-11-25T05:44:35.455Z,-86
2016-11-25T05:45:35.399Z,-86
2016-11-25T05:46:35.575Z,-85
2016-11-25T05:47:35.499Z,-85
2016-11-25T05:48:35.622Z,-86
2016-11-25T05:49:35.518Z,-86
2016-11-25T05:50:35.447Z,-86
2016-11-25T05:51:35.531Z,-86
2016-11-25T05:52:35.523Z,-87
2016-11-25T05:53:35.546Z,-86
2016-11-25T05:54:35.451Z,-86
2016-11-25T05:55:35.491Z,-86
2016-11-25T05:56:35.454Z,-86
2016-11-25T05:57:35.363Z,-86
2016-11-25T05:58:35.474Z,-86
2016-11-25T05:59:35.407Z,-86
2016-11-25T06:00:35.544Z,-86
2016-11-25T06:01:35.367Z,-86
2016-11-25T06:02:35.480Z,-86
2016-11-25T06:03:35.523Z,-86
2016-11-25T06:04:35.664Z,-85
2016-11-25T06:05:35.549Z,-86
2016-11-25T06:06:35.491Z,-86
2016-11-25T06:07:35.648Z,-86
2016-11-25T06:08:35.552Z,-85
2016-11-25T06:09:35.597Z,-86
2016-11-25T06:10:35.579Z,-86
2016-11-25T06:11:35.577Z,-86
2016-11-25T06:12:35.571Z,-86
2016-11-25T06:13:35.506Z,-86
2016-11-25T06:14:35.603Z,-85
2016-11-25T06:15:35.708Z,-86
2016-11-25T06:16:35.608Z,-86
2016-11-25T06:17:35.655Z,-86
2016-11-25T06:18:35.577Z,-86
2016-11-25T06:19:35.514Z,-86
2016-11-25T06:20:35.513Z,-86
2016-11-25T06:21:35.428Z,-86
2016-11-25T06:22:35.441Z,-86
2016-11-25T06:23:35.598Z,-86
2016-11-25T06:24:35.615Z,-86
2016-11-25T06:25:35.595Z,-86
2016-11-25T06:26:35.543Z,-86
2016-11-25T06:27:35.470Z,-86
2016-11-25T06:28:35.606Z,-86
2016-11-25T06:29:35.465Z,-86
2016-11-25T06:30:35.627Z,-86
2016-11-25T06:31:35.577Z,-86
2016-11-25T06:32:35.558Z,-86
2016-11-25T06:33:35.549Z,-86
2016-11-25T06:34:35.631Z,-86
2016-11-25T06:35:35.625Z,-86
2016-11-25T06:36:35.517Z,-86
2016-11-25T06:37:35.709Z,-86
2016-11-25T06:38:35.571Z,-86
2016-11-25T06:39:35.553Z,-86
2016-11-25T06:40:35.548Z,-86
2016-11-25T06:41:35.769Z,-86
2016-11-25T06:42:35.661Z,-86
2016-11-25T06:43:35.543Z,-86
2016-11-25T06:44:36.355Z,-86
2016-11-25T06:45:35.902Z,-85
2016-11-25T06:46:35.807Z,-86
2016-11-25T06:47:35.614Z,-86
2016-11-25T06:48:35.662Z,-86
2016-11-25T06:49:35.742Z,-87
2016-11-25T06:50:35.597Z,-86
2016-11-25T06:51:35.618Z,-86
2016-11-25T06:52:35.929Z,-86
2016-11-25T06:53:35.679Z,-86
2016-11-25T06:54:35.676Z,-86
2016-11-25T06:55:35.658Z,-86
2016-11-25T06:56:35.641Z,-86
2016-11-25T06:57:35.546Z,-86
2016-11-25T06:58:35.734Z,-86
2016-11-25T06:59:35.742Z,-86
2016-11-25T07:00:35.647Z,-86
2016-11-25T07:01:35.723Z,-86
2016-11-25T07:02:35.719Z,-85
2016-11-25T07:03:35.668Z,-86
2016-11-25T07:04:35.571Z,-86
2016-11-25T07:05:35.774Z,-86
2016-11-25T07:06:35.697Z,-91
2016-11-25T07:07:35.726Z,-92
2016-11-25T07:08:35.870Z,-92
2016-11-25T07:09:35.652Z,-92
2016-11-25T07:10:35.562Z,-93
2016-11-25T07:11:35.701Z,-92
2016-11-25T07:12:35.796Z,-93
2016-11-25T07:13:35.654Z,-92
2016-11-25T07:14:35.575Z,-92
2016-11-25T07:15:35.845Z,-94
2016-11-25T07:16:35.652Z,-94
2016-11-25T07:17:35.773Z,-94
2016-11-25T07:18:35.836Z,-94
2016-11-25T07:19:35.835Z,-94
2016-11-25T07:20:46.272Z,-94
2016-11-25T07:21:46.105Z,-95
2016-11-25T07:22:35.757Z,-95
2016-11-25T07:23:35.742Z,-94
2016-11-25T07:24:35.860Z,-94
2016-11-25T07:25:35.758Z,-95
2016-11-25T07:26:35.617Z,-94
2016-11-25T07:27:35.672Z,-94
2016-11-25T07:28:35.698Z,-95
2016-11-25T07:29:35.655Z,-95
2016-11-25T07:30:35.785Z,-94
2016-11-25T07:31:35.704Z,-94
2016-11-25T07:32:35.780Z,-94
2016-11-25T07:33:35.756Z,-94
2016-11-25T07:34:35.826Z,-94
2016-11-25T07:35:35.759Z,-95
2016-11-25T07:36:35.631Z,-95
2016-11-25T07:37:35.771Z,-94
2016-11-25T07:38:35.823Z,-95
2016-11-25T07:39:35.721Z,-95
2016-11-25T07:40:35.984Z,-94
2016-11-25T07:41:35.810Z,-94
2016-11-25T07:42:35.817Z,-94
2016-11-25T07:43:35.820Z,-94
2016-11-25T07:44:35.837Z,-95
2016-11-25T07:45:35.834Z,-95
2016-11-25T07:46:35.698Z,-95
2016-11-25T07:47:35.926Z,-94
2016-11-25T07:48:35.965Z,-94
2016-11-25T07:49:35.879Z,-94
2016-11-25T07:50:35.703Z,-94
2016-11-25T07:51:35.671Z,-94
2016-11-25T07:52:35.945Z,-95
2016-11-25T07:53:35.715Z,-95
2016-11-25T07:54:35.838Z,-94
2016-11-25T07:55:35.855Z,-95
2016-11-25T07:56:35.861Z,-94
2016-11-25T07:57:35.758Z,-95
2016-11-25T07:58:35.813Z,-93
2016-11-25T07:59:35.884Z,-93
2016-11-25T08:00:36.861Z,-94
2016-11-25T08:01:35.845Z,-94
2016-11-25T08:02:35.878Z,-93
2016-11-25T08:03:35.861Z,-93
2016-11-25T08:04:35.911Z,-93
2016-11-25T08:05:35.971Z,-93
2016-11-25T08:06:35.773Z,-92
2016-11-25T08:07:35.807Z,-93
2016-11-25T08:08:35.905Z,-93
2016-11-25T08:09:36.425Z,-93
2016-11-25T08:10:36.011Z,-93
2016-11-25T08:11:35.893Z,-94
2016-11-25T08:12:35.999Z,-93
2016-11-25T08:13:35.763Z,-93
2016-11-25T08:14:35.921Z,-93
2016-11-25T08:15:35.987Z,-92
2016-11-25T08:16:35.888Z,-93
2016-11-25T08:17:35.885Z,-93
2016-11-25T08:18:36.071Z,-94
2016-11-25T08:19:35.914Z,-92
2016-11-25T08:20:35.866Z,-94
2016-11-25T08:21:36.315Z,-94
2016-11-25T08:22:36.061Z,-95
2016-11-25T08:23:35.827Z,-95
2016-11-25T08:24:35.848Z,-94
2016-11-25T08:25:35.928Z,-95
2016-11-25T08:26:35.941Z,-95
2016-11-25T08:27:35.917Z,-95
2016-11-25T08:28:35.992Z,-95
2016-11-25T08:29:35.932Z,-94
2016-11-25T08:30:35.891Z,-96
2016-11-25T08:31:35.956Z,-95
2016-11-25T08:32:36.027Z,-96
2016-11-25T08:33:35.810Z,-96
2016-11-25T08:34:35.774Z,-96
2016-11-25T08:35:35.866Z,-96
2016-11-25T08:36:36.005Z,-96
2016-11-25T08:37:35.900Z,-96
2016-11-25T08:38:35.896Z,-96
2016-11-25T08:39:36.044Z,-96
2016-11-25T08:40:36.005Z,-96
2016-11-25T08:41:36.000Z,-96
2016-11-25T08:42:36.082Z,-95
2016-11-25T08:43:35.886Z,-96
2016-11-25T08:44:35.975Z,-95
2016-11-25T08:45:35.822Z,-94
2016-11-25T08:46:35.931Z,-95
2016-11-25T08:47:36.142Z,-91
2016-11-25T08:48:35.990Z,-96
2016-11-25T08:49:35.993Z,-96
2016-11-25T08:50:36.164Z,-96
2016-11-25T08:51:35.945Z,-95
2016-11-25T08:52:35.825Z,-96
2016-11-25T08:53:36.161Z,-96
2016-11-25T08:54:35.952Z,-96
2016-11-25T08:55:35.959Z,-96
2016-11-25T08:56:38.476Z,-96
2016-11-25T08:57:36.131Z,-96
2016-11-25T08:58:36.380Z,-96
2016-11-25T08:59:36.267Z,-96
2016-11-25T09:00:36.150Z,-96
2016-11-25T09:01:36.698Z,-95
2016-11-25T09:02:36.009Z,-91
2016-11-25T09:03:36.323Z,-96
2016-11-25T09:04:36.181Z,-95
2016-11-25T09:05:36.449Z,-95
2016-11-25T09:06:36.127Z,-94
2016-11-25T09:07:36.116Z,-96
2016-11-25T09:08:36.241Z,-96
2016-11-25T09:09:36.064Z,-96
2016-11-25T09:10:36.051Z,-95
2016-11-25T09:11:36.019Z,-96
2016-11-25T09:12:35.975Z,-96
2016-11-25T09:13:36.988Z,-96
2016-11-25T09:14:36.143Z,-96
2016-11-25T09:15:36.099Z,-96
2016-11-25T09:16:37.375Z,-96
2016-11-25T09:17:36.072Z,-96
2016-11-25T09:18:36.123Z,-95
2016-11-25T09:19:36.377Z,-96
2016-11-25T09:20:36.316Z,-95
2016-11-25T09:21:36.203Z,-95
2016-11-25T09:22:36.074Z,-95
2016-11-25T09:23:36.161Z,-95
2016-11-25T09:24:36.084Z,-95
2016-11-25T09:25:37.371Z,-95
2016-11-25T09:26:36.077Z,-95
2016-11-25T09:27:36.072Z,-95
2016-11-25T09:28:36.157Z,-95
2016-11-25T09:29:36.043Z,-95
2016-11-25T09:30:36.200Z,-94
2016-11-25T09:31:36.130Z,-94
2016-11-25T09:32:36.213Z,-96
2016-11-25T09:33:36.089Z,-95
2016-11-25T09:34:36.163Z,-94
2016-11-25T09:35:36.058Z,-94
2016-11-25T09:36:36.237Z,-94
2016-11-25T09:37:36.170Z,-94
2016-11-25T09:38:36.123Z,-94
2016-11-25T09:39:36.105Z,-94
2016-11-25T09:40:36.160Z,-94
2016-11-25T09:41:36.131Z,-94
2016-11-25T09:42:36.407Z,-94
2016-11-25T09:43:36.273Z,-94
2016-11-25T09:44:36.290Z,-93
2016-11-25T09:45:37.815Z,-94
2016-11-25T09:46:36.272Z,-93
2016-11-25T09:47:36.154Z,-93
2016-11-25T09:48:36.598Z,-94
2016-11-25T09:49:36.112Z,-93
2016-11-25T09:50:36.123Z,-94
2016-11-25T09:51:36.336Z,-94
2016-11-25T09:52:36.594Z,-94
2016-11-25T09:53:36.433Z,-94
2016-11-25T09:54:36.279Z,-93
2016-11-25T09:55:36.292Z,-94
2016-11-25T09:56:36.180Z,-92
2016-11-25T09:57:36.273Z,-90
2016-11-25T09:58:36.172Z,-91
2016-11-25T09:59:36.185Z,-91
2016-11-25T10:00:36.254Z,-90
2016-11-25T10:01:36.148Z,-91
2016-11-25T10:02:36.185Z,-90
2016-11-25T10:03:36.223Z,-93
2016-11-25T10:04:36.168Z,-91
2016-11-25T10:05:36.239Z,-91
2016-11-25T10:06:36.119Z,-90
2016-11-25T10:07:36.763Z,-92
2016-11-25T10:08:36.209Z,-92
2016-11-25T10:09:36.211Z,-92
2016-11-25T10:10:36.100Z,-92
2016-11-25T10:11:36.349Z,-91
2016-11-25T10:12:36.261Z,-90
2016-11-25T10:13:36.138Z,-91
2016-11-25T10:14:36.930Z,-91
2016-11-25T10:15:36.924Z,-90
2016-11-25T10:16:36.992Z,-90
2016-11-25T10:17:36.235Z,-90
2016-11-25T10:18:36.263Z,-89
2016-11-25T10:19:36.374Z,-90
2016-11-25T10:20:36.198Z,-90
2016-11-25T10:21:36.123Z,-90
2016-11-25T10:22:36.477Z,-91
2016-11-25T10:23:36.277Z,-92
2016-11-25T10:24:36.408Z,-93
2016-11-25T10:25:36.258Z,-92
2016-11-25T10:26:36.304Z,-93
2016-11-25T10:27:36.250Z,-91
2016-11-25T10:28:36.349Z,-92
2016-11-25T10:29:36.362Z,-92
2016-11-25T10:30:36.171Z,-92
2016-11-25T10:31:36.677Z,-93
2016-11-25T10:32:36.594Z,-94
2016-11-25T10:33:37.119Z,-90
2016-11-25T10:34:36.400Z,-92
2016-11-25T10:35:36.349Z,-88
2016-11-25T10:36:36.432Z,-92
2016-11-25T10:37:36.291Z,-88
2016-11-25T10:38:36.568Z,-88
2016-11-25T10:39:36.456Z,-89
2016-11-25T10:40:36.405Z,-91
2016-11-25T10:41:36.270Z,-88
2016-11-25T10:42:37.220Z,-90
2016-11-25T10:43:36.248Z,-86
2016-11-25T10:44:36.391Z,-88
2016-11-25T10:45:36.379Z,-87
2016-11-25T10:46:37.242Z,-92
2016-11-25T10:47:36.465Z,-90
2016-11-25T10:48:36.263Z,-89
2016-11-25T10:49:36.249Z,-90
2016-11-25T10:50:36.421Z,-91
2016-11-25T10:51:36.404Z,-91
2016-11-25T10:52:36.286Z,-90
2016-11-25T10:53:36.271Z,-91
2016-11-25T10:54:36.292Z,-91
2016-11-25T10:55:36.263Z,-90
2016-11-25T10:56:36.427Z,-89
2016-11-25T10:57:36.212Z,-92
2016-11-25T10:58:36.734Z,-89
2016-11-25T10:59:36.506Z,-90
2016-11-25T11:00:36.216Z,-91
2016-11-25T11:01:36.502Z,-89
2016-11-25T11:02:36.288Z,-91
2016-11-25T11:03:36.479Z,-89
2016-11-25T11:04:39.296Z,-90
2016-11-25T11:05:36.631Z,-91
2016-11-25T11:06:36.563Z,-90
2016-11-25T11:07:36.592Z,-90
2016-11-25T11:08:36.397Z,-90
2016-11-25T11:09:37.282Z,-90
2016-11-25T11:10:36.253Z,-90
2016-11-25T11:11:36.415Z,-90
2016-11-25T11:12:36.407Z,-90
2016-11-25T11:13:36.441Z,-90
2016-11-25T11:14:36.574Z,-90
2016-11-25T11:15:36.432Z,-89
2016-11-25T11:16:36.479Z,-89
2016-11-25T11:17:36.345Z,-90
2016-11-25T11:18:36.771Z,-90
2016-11-25T11:19:36.507Z,-88
2016-11-25T11:20:36.637Z,-89
2016-11-25T11:21:36.325Z,-89
2016-11-25T11:22:36.350Z,-88
2016-11-25T11:23:36.534Z,-90
2016-11-25T11:24:36.601Z,-93
2016-11-25T11:25:36.530Z,-93
2016-11-25T11:26:36.361Z,-93
2016-11-25T11:27:36.476Z,-93
2016-11-25T11:28:36.430Z,-95
2016-11-25T11:29:36.530Z,-94
2016-11-25T11:30:36.550Z,-92
2016-11-25T11:31:36.599Z,-93
2016-11-25T11:32:36.421Z,-93
2016-11-25T11:33:36.618Z,-92
2016-11-25T11:34:36.415Z,-92
2016-11-25T11:35:36.555Z,-92
2016-11-25T11:36:36.663Z,-91
2016-11-25T11:37:36.446Z,-92
2016-11-25T11:38:36.401Z,-93
2016-11-25T11:39:36.595Z,-93
2016-11-25T11:40:36.676Z,-94
2016-11-25T11:41:36.825Z,-93
2016-11-25T11:42:36.526Z,-94
2016-11-25T11:43:36.691Z,-93
2016-11-25T11:44:36.516Z,-93
2016-11-25T11:45:36.470Z,-93
2016-11-25T11:46:36.411Z,-94
2016-11-25T11:47:36.518Z,-93
2016-11-25T11:48:36.489Z,-92
2016-11-25T11:49:36.469Z,-93
2016-11-25T11:50:37.336Z,-95
2016-11-25T11:51:36.485Z,-93
2016-11-25T11:52:36.744Z,-95
2016-11-25T11:53:36.616Z,-93
2016-11-25T11:54:36.554Z,-95
2016-11-25T11:55:36.464Z,-94
2016-11-25T11:56:36.628Z,-95
2016-11-25T11:57:36.693Z,-95
2016-11-25T11:58:36.585Z,-96
2016-11-25T11:59:36.452Z,-96
2016-11-25T12:00:36.847Z,-95
2016-11-25T12:01:36.563Z,-96
2016-11-25T12:02:36.532Z,-96
2016-11-25T12:03:36.474Z,-96
2016-11-25T12:04:36.493Z,-94
2016-11-25T12:05:36.758Z,-95
2016-11-25T12:06:36.587Z,-95
2016-11-25T12:07:36.474Z,-95
2016-11-25T12:08:36.601Z,-94
2016-11-25T12:09:36.735Z,-96
2016-11-25T12:10:36.550Z,-96
2016-11-25T12:11:36.958Z,-95
2016-11-25T12:12:36.907Z,-95
2016-11-25T12:13:36.702Z,-94
2016-11-25T12:14:36.573Z,-95
2016-11-25T12:15:37.244Z,-94
2016-11-25T12:16:36.710Z,-94
2016-11-25T12:17:36.601Z,-96
2016-11-25T12:18:36.839Z,-94
2016-11-25T12:19:36.695Z,-96
2016-11-25T12:20:36.554Z,-95
2016-11-25T12:21:36.607Z,-95
2016-11-25T12:22:36.628Z,-89
2016-11-25T12:23:36.705Z,-93
2016-11-25T12:24:36.613Z,-93
2016-11-25T12:25:36.572Z,-94
2016-11-25T12:26:36.666Z,-95
2016-11-25T12:27:36.769Z,-94
2016-11-25T12:28:36.824Z,-93
2016-11-25T12:29:36.648Z,-94
2016-11-25T12:30:36.891Z,-96
2016-11-25T12:31:36.739Z,-94
2016-11-25T12:32:36.739Z,-94
2016-11-25T12:33:36.737Z,-95
2016-11-25T12:34:36.558Z,-95
2016-11-25T12:35:36.661Z,-93
2016-11-25T12:36:36.635Z,-94
2016-11-25T12:37:36.537Z,-94
2016-11-25T12:38:36.692Z,-94
2016-11-25T12:39:36.612Z,-93
2016-11-25T12:40:36.861Z,-93
2016-11-25T12:41:36.918Z,-94
2016-11-25T12:42:36.894Z,-95
2016-11-25T12:43:36.901Z,-93
2016-11-25T12:44:36.669Z,-94
2016-11-25T12:45:36.749Z,-94
2016-11-25T12:46:36.778Z,-93
2016-11-25T12:47:36.792Z,-94
2016-11-25T12:48:36.835Z,-93
2016-11-25T12:49:36.757Z,-94
2016-11-25T12:50:36.768Z,-95
2016-11-25T12:51:36.714Z,-94
2016-11-25T12:52:36.547Z,-96
2016-11-25T12:53:36.655Z,-93
2016-11-25T12:54:36.838Z,-94
2016-11-25T12:55:36.822Z,-95
2016-11-25T12:56:36.627Z,-95
2016-11-25T12:57:36.761Z,-95
2016-11-25T12:58:36.951Z,-95
2016-11-25T12:59:36.796Z,-95
2016-11-25T13:00:36.626Z,-95
2016-11-25T13:01:36.789Z,-94
2016-11-25T13:02:36.681Z,-95
2016-11-25T13:03:36.726Z,-90
2016-11-25T13:04:36.763Z,-90
2016-11-25T13:05:36.817Z,-90
2016-11-25T13:06:36.811Z,-91
2016-11-25T13:07:36.621Z,-90
2016-11-25T13:08:36.857Z,-90
2016-11-25T13:09:38.427Z,-90
2016-11-25T13:10:36.772Z,-91
2016-11-25T13:11:36.847Z,-90
2016-11-25T13:12:36.772Z,-90
2016-11-25T13:13:36.625Z,-91
2016-11-25T13:14:36.681Z,-90
2016-11-25T13:15:36.873Z,-90
2016-11-25T13:16:36.779Z,-90
2016-11-25T13:17:36.857Z,-90
2016-11-25T13:18:36.835Z,-92
2016-11-25T13:19:36.840Z,-90
2016-11-25T13:20:36.842Z,-90
2016-11-25T13:21:37.039Z,-90
2016-11-25T13:22:36.726Z,-90
2016-11-25T13:23:36.793Z,-90
2016-11-25T13:24:36.996Z,-90
2016-11-25T13:25:36.792Z,-90
2016-11-25T13:26:36.850Z,-91
2016-11-25T13:27:38.980Z,-90
2016-11-25T13:28:37.068Z,-91
2016-11-25T13:29:36.723Z,-90
2016-11-25T13:30:36.895Z,-90
2016-11-25T13:31:37.422Z,-90
2016-11-25T13:32:36.906Z,-90
2016-11-25T13:33:36.766Z,-90
2016-11-25T13:34:36.753Z,-90
2016-11-25T13:35:36.900Z,-89
2016-11-25T13:36:36.892Z,-90
2016-11-25T13:37:36.674Z,-90
2016-11-25T13:38:36.728Z,-89
2016-11-25T13:39:36.745Z,-90
2016-11-25T13:40:36.887Z,-89
2016-11-25T13:41:36.725Z,-89
2016-11-25T13:42:37.222Z,-89
2016-11-25T13:43:37.001Z,-89
2016-11-25T13:44:36.917Z,-90
2016-11-25T13:45:36.710Z,-90
2016-11-25T13:46:36.923Z,-91